sensor_id;sensor_type;location;lat;lon;timestamp;temperature;humidity
69082;DHT22;69029;51.986;5.760;2023-06-10T00:01:32;22.70;48.10
69082;DHT22;69029;51.986;5.760;2023-06-10T00:03:59;22.60;45.60
69082;DHT22;69029;51.986;5.760;2023-06-10T00:06:25;22.60;47.60
69082;DHT22;69029;51.986;5.760;2023-06-10T00:08:51;22.50;46.20
69082;DHT22;69029;51.986;5.760;2023-06-10T00:11:16;22.40;47.80
69082;DHT22;69029;51.986;5.760;2023-06-10T00:13:42;22.40;47.90
69082;DHT22;69029;51.986;5.760;2023-06-10T00:16:07;22.30;47.80
69082;DHT22;69029;51.986;5.760;2023-06-10T00:18:33;22.30;48.80
69082;DHT22;69029;51.986;5.760;2023-06-10T00:21:02;22.30;49.10
69082;DHT22;69029;51.986;5.760;2023-06-10T00:23:30;22.20;47.40
69082;DHT22;69029;51.986;5.760;2023-06-10T00:25:59;22.20;48.30
69082;DHT22;69029;51.986;5.760;2023-06-10T00:28:25;22.10;48.30
69082;DHT22;69029;51.986;5.760;2023-06-10T00:30:51;22.10;47.80
69082;DHT22;69029;51.986;5.760;2023-06-10T00:33:18;22.00;48.10
69082;DHT22;69029;51.986;5.760;2023-06-10T00:35:44;22.00;49.30
69082;DHT22;69029;51.986;5.760;2023-06-10T00:38:10;21.90;49.10
69082;DHT22;69029;51.986;5.760;2023-06-10T00:40:41;21.90;49.30
69082;DHT22;69029;51.986;5.760;2023-06-10T00:43:07;21.80;48.80
69082;DHT22;69029;51.986;5.760;2023-06-10T00:45:33;21.80;49.50
69082;DHT22;69029;51.986;5.760;2023-06-10T00:48:03;21.70;48.60
69082;DHT22;69029;51.986;5.760;2023-06-10T00:50:29;21.70;49.20
69082;DHT22;69029;51.986;5.760;2023-06-10T00:52:56;21.70;49.10
69082;DHT22;69029;51.986;5.760;2023-06-10T00:55:23;21.60;48.30
69082;DHT22;69029;51.986;5.760;2023-06-10T00:57:49;21.60;48.00
69082;DHT22;69029;51.986;5.760;2023-06-10T01:00:15;21.60;50.20
69082;DHT22;69029;51.986;5.760;2023-06-10T01:02:41;21.50;48.90
69082;DHT22;69029;51.986;5.760;2023-06-10T01:05:08;21.50;48.10
69082;DHT22;69029;51.986;5.760;2023-06-10T01:10:33;21.40;48.60
69082;DHT22;69029;51.986;5.760;2023-06-10T01:13:10;21.30;49.00
69082;DHT22;69029;51.986;5.760;2023-06-10T01:15:37;21.30;50.70
69082;DHT22;69029;51.986;5.760;2023-06-10T01:18:04;21.20;50.50
69082;DHT22;69029;51.986;5.760;2023-06-10T01:20:33;21.10;49.70
69082;DHT22;69029;51.986;5.760;2023-06-10T01:23:00;21.10;50.40
69082;DHT22;69029;51.986;5.760;2023-06-10T01:25:27;21.10;50.60
69082;DHT22;69029;51.986;5.760;2023-06-10T01:30:47;21.00;49.70
69082;DHT22;69029;51.986;5.760;2023-06-10T01:33:17;21.00;50.20
69082;DHT22;69029;51.986;5.760;2023-06-10T01:35:44;21.00;49.90
69082;DHT22;69029;51.986;5.760;2023-06-10T01:38:12;21.00;50.10
69082;DHT22;69029;51.986;5.760;2023-06-10T01:40:40;20.90;50.20
69082;DHT22;69029;51.986;5.760;2023-06-10T01:43:09;20.80;50.90
69082;DHT22;69029;51.986;5.760;2023-06-10T01:45:34;20.80;51.50
69082;DHT22;69029;51.986;5.760;2023-06-10T01:48:00;20.80;50.90
69082;DHT22;69029;51.986;5.760;2023-06-10T01:50:25;20.70;50.90
69082;DHT22;69029;51.986;5.760;2023-06-10T01:52:51;20.70;50.90
69082;DHT22;69029;51.986;5.760;2023-06-10T01:55:17;20.60;51.60
69082;DHT22;69029;51.986;5.760;2023-06-10T01:57:42;20.60;49.50
69082;DHT22;69029;51.986;5.760;2023-06-10T02:00:08;20.60;50.80
69082;DHT22;69029;51.986;5.760;2023-06-10T02:02:35;20.60;50.60
69082;DHT22;69029;51.986;5.760;2023-06-10T02:05:01;20.50;50.80
69082;DHT22;69029;51.986;5.760;2023-06-10T02:07:27;20.50;50.10
69082;DHT22;69029;51.986;5.760;2023-06-10T02:09:52;20.50;50.30
69082;DHT22;69029;51.986;5.760;2023-06-10T02:12:18;20.50;49.80
69082;DHT22;69029;51.986;5.760;2023-06-10T02:14:43;20.50;50.40
69082;DHT22;69029;51.986;5.760;2023-06-10T02:17:09;20.40;50.60
69082;DHT22;69029;51.986;5.760;2023-06-10T02:19:38;20.40;51.40
69082;DHT22;69029;51.986;5.760;2023-06-10T02:22:08;20.40;50.10
69082;DHT22;69029;51.986;5.760;2023-06-10T02:24:33;20.30;51.30
69082;DHT22;69029;51.986;5.760;2023-06-10T02:26:59;20.30;51.70
69082;DHT22;69029;51.986;5.760;2023-06-10T02:29:28;20.30;52.30
69082;DHT22;69029;51.986;5.760;2023-06-10T02:31:54;20.20;51.70
69082;DHT22;69029;51.986;5.760;2023-06-10T02:34:19;20.20;51.70
69082;DHT22;69029;51.986;5.760;2023-06-10T02:36:45;20.20;53.50
69082;DHT22;69029;51.986;5.760;2023-06-10T02:39:10;20.10;51.10
69082;DHT22;69029;51.986;5.760;2023-06-10T02:41:36;20.10;51.80
69082;DHT22;69029;51.986;5.760;2023-06-10T02:44:02;20.00;52.00
69082;DHT22;69029;51.986;5.760;2023-06-10T02:46:27;20.00;52.90
69082;DHT22;69029;51.986;5.760;2023-06-10T02:48:54;20.00;53.50
69082;DHT22;69029;51.986;5.760;2023-06-10T02:51:20;20.00;52.00
69082;DHT22;69029;51.986;5.760;2023-06-10T02:53:46;20.00;54.10
69082;DHT22;69029;51.986;5.760;2023-06-10T02:56:13;19.90;52.60
69082;DHT22;69029;51.986;5.760;2023-06-10T02:58:39;19.90;52.00
69082;DHT22;69029;51.986;5.760;2023-06-10T03:01:04;19.90;53.80
69082;DHT22;69029;51.986;5.760;2023-06-10T03:03:30;19.80;54.50
69082;DHT22;69029;51.986;5.760;2023-06-10T03:05:55;19.80;55.40
69082;DHT22;69029;51.986;5.760;2023-06-10T03:08:22;19.80;55.40
69082;DHT22;69029;51.986;5.760;2023-06-10T03:10:47;19.80;53.40
69082;DHT22;69029;51.986;5.760;2023-06-10T03:13:16;19.70;54.40
69082;DHT22;69029;51.986;5.760;2023-06-10T03:15:42;19.70;54.50
69082;DHT22;69029;51.986;5.760;2023-06-10T03:18:07;19.70;54.10
69082;DHT22;69029;51.986;5.760;2023-06-10T03:20:33;19.70;56.00
69082;DHT22;69029;51.986;5.760;2023-06-10T03:23:02;19.60;55.60
69082;DHT22;69029;51.986;5.760;2023-06-10T03:25:30;19.60;54.30
69082;DHT22;69029;51.986;5.760;2023-06-10T03:27:56;19.60;55.90
69082;DHT22;69029;51.986;5.760;2023-06-10T03:30:22;19.60;55.30
69082;DHT22;69029;51.986;5.760;2023-06-10T03:32:47;19.60;57.70
69082;DHT22;69029;51.986;5.760;2023-06-10T03:35:14;19.60;57.00
69082;DHT22;69029;51.986;5.760;2023-06-10T03:37:40;19.50;55.40
69082;DHT22;69029;51.986;5.760;2023-06-10T03:40:07;19.60;56.20
69082;DHT22;69029;51.986;5.760;2023-06-10T03:42:34;19.50;56.60
69082;DHT22;69029;51.986;5.760;2023-06-10T03:44:59;19.50;57.60
69082;DHT22;69029;51.986;5.760;2023-06-10T03:47:25;19.40;55.60
69082;DHT22;69029;51.986;5.760;2023-06-10T03:49:50;19.40;56.50
69082;DHT22;69029;51.986;5.760;2023-06-10T03:52:17;19.40;56.40
69082;DHT22;69029;51.986;5.760;2023-06-10T03:54:43;19.40;56.30
69082;DHT22;69029;51.986;5.760;2023-06-10T03:57:08;19.40;58.10
69082;DHT22;69029;51.986;5.760;2023-06-10T03:59:35;19.40;58.20
69082;DHT22;69029;51.986;5.760;2023-06-10T04:02:00;19.30;56.00
69082;DHT22;69029;51.986;5.760;2023-06-10T04:04:26;19.30;57.70
69082;DHT22;69029;51.986;5.760;2023-06-10T04:06:52;19.40;57.60
69082;DHT22;69029;51.986;5.760;2023-06-10T04:09:18;19.40;56.10
69082;DHT22;69029;51.986;5.760;2023-06-10T04:11:44;19.40;57.90
69082;DHT22;69029;51.986;5.760;2023-06-10T04:14:09;19.40;58.00
69082;DHT22;69029;51.986;5.760;2023-06-10T04:16:35;19.30;59.50
69082;DHT22;69029;51.986;5.760;2023-06-10T04:19:00;19.30;58.80
69082;DHT22;69029;51.986;5.760;2023-06-10T04:21:26;19.40;56.30
69082;DHT22;69029;51.986;5.760;2023-06-10T04:23:52;19.40;59.50
69082;DHT22;69029;51.986;5.760;2023-06-10T04:26:19;19.40;59.30
69082;DHT22;69029;51.986;5.760;2023-06-10T04:28:44;19.40;59.20
69082;DHT22;69029;51.986;5.760;2023-06-10T04:31:10;19.40;58.40
69082;DHT22;69029;51.986;5.760;2023-06-10T04:33:35;19.40;59.30
69082;DHT22;69029;51.986;5.760;2023-06-10T04:36:01;19.40;59.00
69082;DHT22;69029;51.986;5.760;2023-06-10T04:38:27;19.40;59.80
69082;DHT22;69029;51.986;5.760;2023-06-10T04:40:53;19.50;59.80
69082;DHT22;69029;51.986;5.760;2023-06-10T04:43:19;19.50;59.50
69082;DHT22;69029;51.986;5.760;2023-06-10T04:45:44;19.50;60.00
69082;DHT22;69029;51.986;5.760;2023-06-10T04:48:11;19.50;59.00
69082;DHT22;69029;51.986;5.760;2023-06-10T04:50:37;19.50;58.40
69082;DHT22;69029;51.986;5.760;2023-06-10T04:53:02;19.50;58.90
69082;DHT22;69029;51.986;5.760;2023-06-10T04:55:28;19.50;62.00
69082;DHT22;69029;51.986;5.760;2023-06-10T04:57:54;19.50;58.60
69082;DHT22;69029;51.986;5.760;2023-06-10T05:00:20;19.60;60.90
69082;DHT22;69029;51.986;5.760;2023-06-10T05:02:45;19.60;61.10
69082;DHT22;69029;51.986;5.760;2023-06-10T05:05:18;19.70;60.50
69082;DHT22;69029;51.986;5.760;2023-06-10T05:07:43;19.70;60.00
69082;DHT22;69029;51.986;5.760;2023-06-10T05:10:09;19.70;61.70
69082;DHT22;69029;51.986;5.760;2023-06-10T05:12:35;19.80;61.70
69082;DHT22;69029;51.986;5.760;2023-06-10T05:15:01;19.80;61.40
69082;DHT22;69029;51.986;5.760;2023-06-10T05:17:27;19.80;62.50
69082;DHT22;69029;51.986;5.760;2023-06-10T05:19:53;19.80;61.00
69082;DHT22;69029;51.986;5.760;2023-06-10T05:22:19;19.90;61.10
69082;DHT22;69029;51.986;5.760;2023-06-10T05:24:44;19.90;63.10
69082;DHT22;69029;51.986;5.760;2023-06-10T05:27:10;20.00;63.70
69082;DHT22;69029;51.986;5.760;2023-06-10T05:29:36;20.00;62.10
69082;DHT22;69029;51.986;5.760;2023-06-10T05:32:02;20.00;63.60
69082;DHT22;69029;51.986;5.760;2023-06-10T05:34:31;20.00;62.80
69082;DHT22;69029;51.986;5.760;2023-06-10T05:36:56;20.10;61.40
69082;DHT22;69029;51.986;5.760;2023-06-10T05:39:22;20.20;63.00
69082;DHT22;69029;51.986;5.760;2023-06-10T05:41:48;20.20;62.30
69082;DHT22;69029;51.986;5.760;2023-06-10T05:44:14;20.20;62.80
69082;DHT22;69029;51.986;5.760;2023-06-10T05:46:39;20.30;63.90
69082;DHT22;69029;51.986;5.760;2023-06-10T05:49:05;20.30;64.50
69082;DHT22;69029;51.986;5.760;2023-06-10T05:51:30;20.40;64.30
69082;DHT22;69029;51.986;5.760;2023-06-10T05:53:56;20.50;63.90
69082;DHT22;69029;51.986;5.760;2023-06-10T05:56:22;20.50;64.10
69082;DHT22;69029;51.986;5.760;2023-06-10T05:58:48;20.60;64.50
69082;DHT22;69029;51.986;5.760;2023-06-10T06:01:14;20.70;64.30
69082;DHT22;69029;51.986;5.760;2023-06-10T06:03:39;20.70;62.80
69082;DHT22;69029;51.986;5.760;2023-06-10T06:06:05;20.80;63.40
69082;DHT22;69029;51.986;5.760;2023-06-10T06:08:31;20.90;63.60
69082;DHT22;69029;51.986;5.760;2023-06-10T06:10:57;20.90;63.60
69082;DHT22;69029;51.986;5.760;2023-06-10T06:13:23;21.00;64.10
69082;DHT22;69029;51.986;5.760;2023-06-10T06:15:49;21.10;63.80
69082;DHT22;69029;51.986;5.760;2023-06-10T06:18:14;21.10;64.10
69082;DHT22;69029;51.986;5.760;2023-06-10T06:20:40;21.20;62.20
69082;DHT22;69029;51.986;5.760;2023-06-10T06:23:06;21.20;63.10
69082;DHT22;69029;51.986;5.760;2023-06-10T06:25:33;21.30;63.00
69082;DHT22;69029;51.986;5.760;2023-06-10T06:28:01;21.30;62.10
69082;DHT22;69029;51.986;5.760;2023-06-10T06:30:26;21.30;61.30
69082;DHT22;69029;51.986;5.760;2023-06-10T06:32:52;21.40;61.10
69082;DHT22;69029;51.986;5.760;2023-06-10T06:35:18;21.50;61.50
69082;DHT22;69029;51.986;5.760;2023-06-10T06:37:44;21.60;60.00
69082;DHT22;69029;51.986;5.760;2023-06-10T06:40:10;21.60;60.80
69082;DHT22;69029;51.986;5.760;2023-06-10T06:42:35;21.70;60.80
69082;DHT22;69029;51.986;5.760;2023-06-10T06:45:01;21.80;60.90
69082;DHT22;69029;51.986;5.760;2023-06-10T06:47:27;21.80;59.70
69082;DHT22;69029;51.986;5.760;2023-06-10T06:49:52;22.00;60.70
69082;DHT22;69029;51.986;5.760;2023-06-10T06:52:18;22.00;58.40
69082;DHT22;69029;51.986;5.760;2023-06-10T06:54:44;22.10;59.00
69082;DHT22;69029;51.986;5.760;2023-06-10T06:57:10;22.10;60.00
69082;DHT22;69029;51.986;5.760;2023-06-10T06:59:36;22.20;58.30
69082;DHT22;69029;51.986;5.760;2023-06-10T07:02:02;22.30;57.80
69082;DHT22;69029;51.986;5.760;2023-06-10T07:04:27;22.40;57.20
69082;DHT22;69029;51.986;5.760;2023-06-10T07:06:54;22.40;57.00
69082;DHT22;69029;51.986;5.760;2023-06-10T07:09:19;22.50;56.40
69082;DHT22;69029;51.986;5.760;2023-06-10T07:11:45;22.50;57.50
69082;DHT22;69029;51.986;5.760;2023-06-10T07:14:11;22.60;58.00
69082;DHT22;69029;51.986;5.760;2023-06-10T07:16:36;22.60;57.70
69082;DHT22;69029;51.986;5.760;2023-06-10T07:19:02;22.70;56.80
69082;DHT22;69029;51.986;5.760;2023-06-10T07:21:29;22.80;56.30
69082;DHT22;69029;51.986;5.760;2023-06-10T07:23:55;22.90;57.40
69082;DHT22;69029;51.986;5.760;2023-06-10T07:26:22;22.90;55.30
69082;DHT22;69029;51.986;5.760;2023-06-10T07:28:48;23.00;56.00
69082;DHT22;69029;51.986;5.760;2023-06-10T07:31:13;23.00;55.50
69082;DHT22;69029;51.986;5.760;2023-06-10T07:33:39;23.00;56.60
69082;DHT22;69029;51.986;5.760;2023-06-10T07:36:06;23.10;55.90
69082;DHT22;69029;51.986;5.760;2023-06-10T07:38:31;23.10;55.70
69082;DHT22;69029;51.986;5.760;2023-06-10T07:40:57;23.20;56.60
69082;DHT22;69029;51.986;5.760;2023-06-10T07:43:23;23.30;56.50
69082;DHT22;69029;51.986;5.760;2023-06-10T07:45:49;23.30;54.40
69082;DHT22;69029;51.986;5.760;2023-06-10T07:48:14;23.40;54.70
69082;DHT22;69029;51.986;5.760;2023-06-10T07:50:40;23.50;55.70
69082;DHT22;69029;51.986;5.760;2023-06-10T07:53:06;23.60;55.50
69082;DHT22;69029;51.986;5.760;2023-06-10T07:55:31;23.60;54.30
69082;DHT22;69029;51.986;5.760;2023-06-10T07:57:57;23.70;54.10
69082;DHT22;69029;51.986;5.760;2023-06-10T08:00:23;23.80;56.10
69082;DHT22;69029;51.986;5.760;2023-06-10T08:02:48;23.80;53.70
69082;DHT22;69029;51.986;5.760;2023-06-10T08:05:14;23.90;54.40
69082;DHT22;69029;51.986;5.760;2023-06-10T08:07:40;23.90;53.10
69082;DHT22;69029;51.986;5.760;2023-06-10T08:10:06;24.00;51.00
69082;DHT22;69029;51.986;5.760;2023-06-10T08:12:33;24.10;52.90
69082;DHT22;69029;51.986;5.760;2023-06-10T08:14:59;24.10;51.90
69082;DHT22;69029;51.986;5.760;2023-06-10T08:17:25;24.20;53.30
69082;DHT22;69029;51.986;5.760;2023-06-10T08:19:50;24.20;52.00
69082;DHT22;69029;51.986;5.760;2023-06-10T08:22:16;24.30;53.10
69082;DHT22;69029;51.986;5.760;2023-06-10T08:24:41;24.40;52.20
69082;DHT22;69029;51.986;5.760;2023-06-10T08:27:07;24.50;52.00
69082;DHT22;69029;51.986;5.760;2023-06-10T08:29:33;24.50;51.80
69082;DHT22;69029;51.986;5.760;2023-06-10T08:31:59;24.60;51.10
69082;DHT22;69029;51.986;5.760;2023-06-10T08:34:24;24.70;51.60
69082;DHT22;69029;51.986;5.760;2023-06-10T08:36:50;24.80;52.10
69082;DHT22;69029;51.986;5.760;2023-06-10T08:39:19;24.80;51.80
69082;DHT22;69029;51.986;5.760;2023-06-10T08:41:50;24.90;52.00
69082;DHT22;69029;51.986;5.760;2023-06-10T08:44:28;24.90;52.60
69082;DHT22;69029;51.986;5.760;2023-06-10T08:46:56;25.00;52.50
69082;DHT22;69029;51.986;5.760;2023-06-10T08:49:26;25.00;51.60
69082;DHT22;69029;51.986;5.760;2023-06-10T08:51:58;25.00;51.30
69082;DHT22;69029;51.986;5.760;2023-06-10T08:54:28;25.00;51.20
69082;DHT22;69029;51.986;5.760;2023-06-10T08:56:55;25.10;49.70
69082;DHT22;69029;51.986;5.760;2023-06-10T08:59:23;25.10;49.70
69082;DHT22;69029;51.986;5.760;2023-06-10T09:01:50;25.10;49.00
69082;DHT22;69029;51.986;5.760;2023-06-10T09:04:17;25.20;49.10
69082;DHT22;69029;51.986;5.760;2023-06-10T09:06:44;25.30;49.00
69082;DHT22;69029;51.986;5.760;2023-06-10T09:09:10;25.40;49.90
69082;DHT22;69029;51.986;5.760;2023-06-10T09:11:38;25.40;48.90
69082;DHT22;69029;51.986;5.760;2023-06-10T09:14:03;25.50;49.50
69082;DHT22;69029;51.986;5.760;2023-06-10T09:16:29;25.60;49.30
69082;DHT22;69029;51.986;5.760;2023-06-10T09:18:55;25.70;49.50
69082;DHT22;69029;51.986;5.760;2023-06-10T09:21:24;25.70;49.10
69082;DHT22;69029;51.986;5.760;2023-06-10T09:23:51;25.70;48.70
69082;DHT22;69029;51.986;5.760;2023-06-10T09:26:17;25.70;48.80
69082;DHT22;69029;51.986;5.760;2023-06-10T09:28:49;25.80;49.50
69082;DHT22;69029;51.986;5.760;2023-06-10T09:31:15;25.80;50.20
69082;DHT22;69029;51.986;5.760;2023-06-10T09:33:44;25.90;49.60
69082;DHT22;69029;51.986;5.760;2023-06-10T09:36:10;25.80;48.50
69082;DHT22;69029;51.986;5.760;2023-06-10T09:38:36;26.00;49.60
69082;DHT22;69029;51.986;5.760;2023-06-10T09:41:03;26.00;48.10
69082;DHT22;69029;51.986;5.760;2023-06-10T09:43:39;26.00;48.00
69082;DHT22;69029;51.986;5.760;2023-06-10T09:46:05;26.20;49.40
69082;DHT22;69029;51.986;5.760;2023-06-10T09:48:35;26.20;47.80
69082;DHT22;69029;51.986;5.760;2023-06-10T09:51:01;26.30;48.10
69082;DHT22;69029;51.986;5.760;2023-06-10T09:53:26;26.40;46.80
69082;DHT22;69029;51.986;5.760;2023-06-10T09:55:52;26.40;47.50
69082;DHT22;69029;51.986;5.760;2023-06-10T09:58:18;26.50;47.30
69082;DHT22;69029;51.986;5.760;2023-06-10T10:00:58;26.60;46.60
69082;DHT22;69029;51.986;5.760;2023-06-10T10:03:24;26.70;46.40
69082;DHT22;69029;51.986;5.760;2023-06-10T10:05:49;26.70;46.20
69082;DHT22;69029;51.986;5.760;2023-06-10T10:08:15;26.70;44.00
69082;DHT22;69029;51.986;5.760;2023-06-10T10:10:41;27.00;44.40
69082;DHT22;69029;51.986;5.760;2023-06-10T10:13:06;27.20;43.30
69082;DHT22;69029;51.986;5.760;2023-06-10T10:15:33;27.40;43.30
69082;DHT22;69029;51.986;5.760;2023-06-10T10:18:06;27.70;44.20
69082;DHT22;69029;51.986;5.760;2023-06-10T10:20:33;27.90;42.10
69082;DHT22;69029;51.986;5.760;2023-06-10T10:23:03;28.10;42.20
69082;DHT22;69029;51.986;5.760;2023-06-10T10:25:35;28.30;41.90
69082;DHT22;69029;51.986;5.760;2023-06-10T10:28:15;28.40;41.10
69082;DHT22;69029;51.986;5.760;2023-06-10T10:30:48;28.50;39.10
69082;DHT22;69029;51.986;5.760;2023-06-10T10:33:33;28.70;40.80
69082;DHT22;69029;51.986;5.760;2023-06-10T10:36:01;29.10;38.70
69082;DHT22;69029;51.986;5.760;2023-06-10T10:38:28;29.30;37.20
69082;DHT22;69029;51.986;5.760;2023-06-10T10:40:54;29.50;37.50
69082;DHT22;69029;51.986;5.760;2023-06-10T10:43:21;29.60;35.10
69082;DHT22;69029;51.986;5.760;2023-06-10T10:45:58;29.70;34.40
69082;DHT22;69029;51.986;5.760;2023-06-10T10:48:24;30.10;35.90
69082;DHT22;69029;51.986;5.760;2023-06-10T10:50:57;30.40;34.30
69082;DHT22;69029;51.986;5.760;2023-06-10T10:53:24;30.80;37.00
69082;DHT22;69029;51.986;5.760;2023-06-10T10:56:13;30.70;34.70
69082;DHT22;69029;51.986;5.760;2023-06-10T10:58:40;31.10;35.30
69082;DHT22;69029;51.986;5.760;2023-06-10T11:01:13;31.30;35.40
69082;DHT22;69029;51.986;5.760;2023-06-10T11:03:46;31.50;33.40
69082;DHT22;69029;51.986;5.760;2023-06-10T11:06:13;31.90;34.00
69082;DHT22;69029;51.986;5.760;2023-06-10T11:11:23;32.40;32.90
69082;DHT22;69029;51.986;5.760;2023-06-10T11:16:30;33.00;32.80
69082;DHT22;69029;51.986;5.760;2023-06-10T11:19:03;33.60;31.70
69082;DHT22;69029;51.986;5.760;2023-06-10T11:21:28;33.70;32.60
69082;DHT22;69029;51.986;5.760;2023-06-10T11:23:58;34.10;32.70
69082;DHT22;69029;51.986;5.760;2023-06-10T11:31:23;35.20;32.10
69082;DHT22;69029;51.986;5.760;2023-06-10T11:33:54;35.70;33.00
69082;DHT22;69029;51.986;5.760;2023-06-10T11:36:20;36.20;32.80
69082;DHT22;69029;51.986;5.760;2023-06-10T11:38:46;36.50;31.60
69082;DHT22;69029;51.986;5.760;2023-06-10T11:41:13;36.70;34.30
69082;DHT22;69029;51.986;5.760;2023-06-10T11:43:48;37.20;32.10
69082;DHT22;69029;51.986;5.760;2023-06-10T11:46:14;37.30;34.50
69082;DHT22;69029;51.986;5.760;2023-06-10T11:48:51;37.80;30.30
69082;DHT22;69029;51.986;5.760;2023-06-10T11:51:17;38.20;32.60
69082;DHT22;69029;51.986;5.760;2023-06-10T11:53:49;38.90;33.80
69082;DHT22;69029;51.986;5.760;2023-06-10T11:56:25;39.20;31.80
69082;DHT22;69029;51.986;5.760;2023-06-10T11:58:56;39.40;32.10
69082;DHT22;69029;51.986;5.760;2023-06-10T12:01:23;39.70;30.60
69082;DHT22;69029;51.986;5.760;2023-06-10T12:04:08;40.10;30.00
69082;DHT22;69029;51.986;5.760;2023-06-10T12:06:42;40.40;32.40
69082;DHT22;69029;51.986;5.760;2023-06-10T12:09:25;40.80;31.90
69082;DHT22;69029;51.986;5.760;2023-06-10T12:12:04;41.10;29.50
69082;DHT22;69029;51.986;5.760;2023-06-10T12:14:50;41.20;30.80
69082;DHT22;69029;51.986;5.760;2023-06-10T12:17:34;41.60;30.10
69082;DHT22;69029;51.986;5.760;2023-06-10T12:20:04;41.90;28.40
69082;DHT22;69029;51.986;5.760;2023-06-10T12:22:43;42.30;30.00
69082;DHT22;69029;51.986;5.760;2023-06-10T12:25:10;42.80;30.30
69082;DHT22;69029;51.986;5.760;2023-06-10T12:27:37;43.20;29.20
69082;DHT22;69029;51.986;5.760;2023-06-10T12:30:05;43.60;28.80
69082;DHT22;69029;51.986;5.760;2023-06-10T12:32:41;43.60;29.00
69082;DHT22;69029;51.986;5.760;2023-06-10T12:35:07;43.70;29.60
69082;DHT22;69029;51.986;5.760;2023-06-10T12:37:33;44.30;28.10
69082;DHT22;69029;51.986;5.760;2023-06-10T12:40:03;44.40;26.50
69082;DHT22;69029;51.986;5.760;2023-06-10T12:42:30;44.70;26.90
69082;DHT22;69029;51.986;5.760;2023-06-10T12:44:56;44.90;25.70
69082;DHT22;69029;51.986;5.760;2023-06-10T12:47:37;45.10;27.30
69082;DHT22;69029;51.986;5.760;2023-06-10T12:50:07;45.50;27.60
69082;DHT22;69029;51.986;5.760;2023-06-10T12:52:33;45.90;26.40
69082;DHT22;69029;51.986;5.760;2023-06-10T12:54:59;46.20;25.70
69082;DHT22;69029;51.986;5.760;2023-06-10T12:57:25;46.30;24.80
69082;DHT22;69029;51.986;5.760;2023-06-10T12:59:51;46.30;24.90
69082;DHT22;69029;51.986;5.760;2023-06-10T13:02:22;46.10;24.90
69082;DHT22;69029;51.986;5.760;2023-06-10T13:04:50;46.20;23.50
69082;DHT22;69029;51.986;5.760;2023-06-10T13:07:16;46.30;25.20
69082;DHT22;69029;51.986;5.760;2023-06-10T13:09:42;46.60;25.10
69082;DHT22;69029;51.986;5.760;2023-06-10T13:12:08;46.80;24.80
69082;DHT22;69029;51.986;5.760;2023-06-10T13:14:34;47.00;24.50
69082;DHT22;69029;51.986;5.760;2023-06-10T13:17:00;47.40;24.80
69082;DHT22;69029;51.986;5.760;2023-06-10T13:19:25;47.80;23.90
69082;DHT22;69029;51.986;5.760;2023-06-10T13:21:52;48.00;24.10
69082;DHT22;69029;51.986;5.760;2023-06-10T13:24:17;48.10;24.20
69082;DHT22;69029;51.986;5.760;2023-06-10T13:26:43;48.00;22.90
69082;DHT22;69029;51.986;5.760;2023-06-10T13:29:09;48.50;23.40
69082;DHT22;69029;51.986;5.760;2023-06-10T13:31:39;48.70;23.70
69082;DHT22;69029;51.986;5.760;2023-06-10T13:34:05;49.00;23.40
69082;DHT22;69029;51.986;5.760;2023-06-10T13:36:31;48.30;21.70
69082;DHT22;69029;51.986;5.760;2023-06-10T13:38:57;48.20;23.00
69082;DHT22;69029;51.986;5.760;2023-06-10T13:41:22;48.30;22.00
69082;DHT22;69029;51.986;5.760;2023-06-10T13:43:48;48.40;22.40
69082;DHT22;69029;51.986;5.760;2023-06-10T13:46:14;48.50;21.30
69082;DHT22;69029;51.986;5.760;2023-06-10T13:48:39;48.80;21.60
69082;DHT22;69029;51.986;5.760;2023-06-10T13:51:05;49.40;21.10
69082;DHT22;69029;51.986;5.760;2023-06-10T13:53:32;49.70;21.30
69082;DHT22;69029;51.986;5.760;2023-06-10T13:55:57;50.00;21.30
69082;DHT22;69029;51.986;5.760;2023-06-10T13:58:23;50.00;20.80
69082;DHT22;69029;51.986;5.760;2023-06-10T14:00:49;50.10;21.10
69082;DHT22;69029;51.986;5.760;2023-06-10T14:03:14;50.20;20.10
69082;DHT22;69029;51.986;5.760;2023-06-10T14:05:40;50.10;20.60
69082;DHT22;69029;51.986;5.760;2023-06-10T14:08:05;49.80;20.50
69082;DHT22;69029;51.986;5.760;2023-06-10T14:10:31;50.00;20.40
69082;DHT22;69029;51.986;5.760;2023-06-10T14:12:57;50.10;20.70
69082;DHT22;69029;51.986;5.760;2023-06-10T14:15:22;50.10;20.40
69082;DHT22;69029;51.986;5.760;2023-06-10T14:17:48;50.10;20.20
69082;DHT22;69029;51.986;5.760;2023-06-10T14:20:13;50.20;20.20
69082;DHT22;69029;51.986;5.760;2023-06-10T14:22:39;50.40;20.10
69082;DHT22;69029;51.986;5.760;2023-06-10T14:25:06;50.30;19.60
69082;DHT22;69029;51.986;5.760;2023-06-10T14:27:31;50.10;19.80
69082;DHT22;69029;51.986;5.760;2023-06-10T14:29:57;50.40;20.10
69082;DHT22;69029;51.986;5.760;2023-06-10T14:32:23;50.40;19.60
69082;DHT22;69029;51.986;5.760;2023-06-10T14:34:48;50.60;19.50
69082;DHT22;69029;51.986;5.760;2023-06-10T14:37:14;50.90;18.90
69082;DHT22;69029;51.986;5.760;2023-06-10T14:39:40;51.30;19.50
69082;DHT22;69029;51.986;5.760;2023-06-10T14:42:06;51.10;18.70
69082;DHT22;69029;51.986;5.760;2023-06-10T14:44:32;50.90;19.20
69082;DHT22;69029;51.986;5.760;2023-06-10T14:46:57;50.80;19.50
69082;DHT22;69029;51.986;5.760;2023-06-10T14:49:23;50.70;19.20
69082;DHT22;69029;51.986;5.760;2023-06-10T14:51:49;50.30;18.70
69082;DHT22;69029;51.986;5.760;2023-06-10T14:54:15;50.80;19.20
69082;DHT22;69029;51.986;5.760;2023-06-10T14:56:41;50.60;18.70
69082;DHT22;69029;51.986;5.760;2023-06-10T14:59:06;50.90;18.40
69082;DHT22;69029;51.986;5.760;2023-06-10T15:01:32;50.80;19.00
69082;DHT22;69029;51.986;5.760;2023-06-10T15:03:58;50.40;18.10
69082;DHT22;69029;51.986;5.760;2023-06-10T15:06:23;50.70;18.70
69082;DHT22;69029;51.986;5.760;2023-06-10T15:08:49;51.10;18.30
69082;DHT22;69029;51.986;5.760;2023-06-10T15:11:15;51.10;17.80
69082;DHT22;69029;51.986;5.760;2023-06-10T15:13:41;51.10;18.80
69082;DHT22;69029;51.986;5.760;2023-06-10T15:16:07;51.20;18.60
69082;DHT22;69029;51.986;5.760;2023-06-10T15:18:33;51.50;18.00
69082;DHT22;69029;51.986;5.760;2023-06-10T15:20:58;51.60;18.80
69082;DHT22;69029;51.986;5.760;2023-06-10T15:23:24;51.20;18.30
69082;DHT22;69029;51.986;5.760;2023-06-10T15:25:50;51.00;18.10
69082;DHT22;69029;51.986;5.760;2023-06-10T15:28:16;50.80;18.10
69082;DHT22;69029;51.986;5.760;2023-06-10T15:30:41;50.70;18.70
69082;DHT22;69029;51.986;5.760;2023-06-10T15:33:07;50.80;18.40
69082;DHT22;69029;51.986;5.760;2023-06-10T15:35:33;50.80;17.80
69082;DHT22;69029;51.986;5.760;2023-06-10T15:37:58;50.90;18.80
69082;DHT22;69029;51.986;5.760;2023-06-10T15:40:27;50.60;18.60
69082;DHT22;69029;51.986;5.760;2023-06-10T15:43:10;50.70;19.50
69082;DHT22;69029;51.986;5.760;2023-06-10T15:45:38;50.60;18.80